Show/Hide

Montgomery County Offices are open to the public. However, in an abundance of caution, anyone entering a County building will be required to wear a mask or face covering, have their temperature checked, and practice social distancing. We ask that you practice safer at home and only visit County buildings when necessary.

County Online Services  | Families First Coronavirus Response Act (FFCRA) | FFCRA Employee Rights | Safer at Home Order | ALtogether

Bids

Print
Press Enter to show all options, press Tab go to next option

Current Opportunities

RFP NumberTitleStartingClosingStatus
51100-20B-007Clean Saturday Refuse Collection Service11/13/201912/04/2019 10:00 AMClosed
51100-20B-008Armored Car Service11/26/201912/10/2019 10:00 AMClosed
51500 20B 009Off-Site Printing of Notices11/26/201912/10/2019 10:00 AMClosed
51901-19B-021Pest Control Services07/18/201907/30/2019 10:00 AMClosed
51901-19B-022Golf Cart07/19/201907/30/2019 10:00 AMClosed
51901-19B-022 Amendment 1Amendment No. 1 Golf Cart07/26/201908/06/2019 10:00 AMClosed
51901-19B-035Staff Uniforms09/30/201910/21/2019 10:00 AMClosed
51901-19B-035 Amendment No. 1Staff Uniforms Amendment No. 110/08/201910/21/2019 10:00 AMClosed
51901-20B-004Support Service Vans01/07/202001/28/2020 10:00 AMClosed
51901-20B-005Janitorial Services01/07/202001/28/2020 10:00 AMClosed
51901-20B-016Air Filters and Service05/07/202005/28/2020 10:00 AMOpen
51901-20B-017Dumpster Rental and Trash CollectionNEW!05/21/202006/05/2020 10:00 AMOpen
51910-20B-011Election Center Van03/11/202003/31/2020 10:00 AMClosed
51910-20B-011 AmendAmendment No. 1 to Election Center Van03/11/202004/21/2020 10:00 AMClosed
51965-19B-011Private Data Network Probate/Revenue West03/04/201903/25/2019 10:00 AMClosed
51965-20B-014Network Switches04/22/202005/12/2020 10:00 AMClosed
51988- 20B-002Catering of Food Trays10/03/201910/15/2019 10:00 AMClosed
51988-19B-033Employee Luncheon09/26/2019 1:59 PM10/14/2019 9:59 AMClosed
52110-19B-013Emergency Medical Treatment and Transportation04/08/201904/29/2019 10:00 AMClosed
52110-19B-018Law Enforcement Duty Weapons Exchange06/17/201907/08/2019 10:00 AMClosed

Previous RFPs and Results

RFP Title Closing Results
52200-19B-010 Inmate Food Service 12/27/2018 Results
52110-19B-009 Law Enforcement Emergency Equipment 12/28/2018 Results
51965-19B-008 Private Data Network Youth Facility 11/27/2018 Results
51901-19B-007 Janitorial Services 11/13/2018 Results

Amendment 1 Janitorial Services




Amendment 2 Janitorial Services



51965-19B-006 Private Data Network 11/08/2018 Results
53000-19B-005 Crushed Stone 11/07/2018 Results
53104-19B-004 Traffic Sign and Supplies 11/08/2018 Results
52200-19B-003 Inmate Uniforms 11/02/2018 Results
57202-19B-002 Drug Lab Services 10/25/2018 Results
52110-19B-001 Law Enforcement Emergency Equipment 11/09/2018

Amendment 1 Law Enforcement Emergency Equipment

 

Notice To Withdraw Invitation To Bid

 
51965-17B-030 Secondary Internet Service 10/02/2018

Notice to Refuse All Bids for Secondary Internet Service

 
57202-18B-029 Drug Lab Services 8/26/2018 No Bids
52200-18B-028 Inmate Security 8/05/2018 Results
52200-18B-027 Kitchen Equipment for Detention Facility 8/27/2018 Results
51100-18B-026 Clean Saturday Refuse Collection Service 10/16/2018 Results
51901-18B-024 Landscape Maintenance Service 08/14/2018 Results

Amendment 1 Landscape Maintenance Service

51901-18B-023 Fuel Management System 08/29//2018 Results
52110-18B-022 Polo Shirts MCSO 06/20/2018 Results

Free viewers are required for some of the attached documents.
They can be downloaded by clicking on the icons below.

Acrobat Reader Download Acrobat Reader Flash Player Download Flash Player Windows Media Player Download Windows Media Player Microsoft Silverlight Download Microsoft Silverlight Word Viewer Download Word Viewer Excel Viewer Download Excel Viewer PowerPoint Viewer Download PowerPoint Viewer